sensor_id;sensor_type;location;lat;lon;timestamp;pressure;altitude;pressure_sealevel;temperature;humidity
4745;BME280;2386;42.138;24.746;2024-01-15T00:01:12;99234.78;;;1.17;100.00
4745;BME280;2386;42.138;24.746;2024-01-15T00:03:37;99225.63;;;0.97;100.00
4745;BME280;2386;42.138;24.746;2024-01-15T00:06:03;99224.53;;;1.06;100.00
4745;BME280;2386;42.138;24.746;2024-01-15T00:08:28;99228.97;;;1.14;100.00
4745;BME280;2386;42.138;24.746;2024-01-15T00:10:53;99227.22;;;1.06;100.00
4745;BME280;2386;42.138;24.746;2024-01-15T00:13:19;99226.97;;;0.93;100.00
4745;BME280;2386;42.138;24.746;2024-01-15T00:15:44;99210.53;;;0.81;100.00
4745;BME280;2386;42.138;24.746;2024-01-15T00:18:10;99206.69;;;0.84;100.00
4745;BME280;2386;42.138;24.746;2024-01-15T00:20:35;99223.19;;;0.87;100.00
4745;BME280;2386;42.138;24.746;2024-01-15T00:23:00;99218.56;;;0.81;100.00
4745;BME280;2386;42.138;24.746;2024-01-15T00:25:26;99219.03;;;0.85;100.00
4745;BME280;2386;42.138;24.746;2024-01-15T00:27:51;99220.69;;;1.09;100.00
4745;BME280;2386;42.138;24.746;2024-01-15T00:30:17;99216.41;;;0.77;100.00
4745;BME280;2386;42.138;24.746;2024-01-15T00:32:42;99209.41;;;0.98;100.00
4745;BME280;2386;42.138;24.746;2024-01-15T00:35:08;99224.00;;;0.88;100.00
4745;BME280;2386;42.138;24.746;2024-01-15T00:37:33;99216.41;;;0.77;100.00
4745;BME280;2386;42.138;24.746;2024-01-15T00:39:59;99212.56;;;0.79;100.00
4745;BME280;2386;42.138;24.746;2024-01-15T00:42:25;99202.22;;;0.99;100.00
4745;BME280;2386;42.138;24.746;2024-01-15T00:44:50;99209.78;;;0.95;100.00
4745;BME280;2386;42.138;24.746;2024-01-15T00:47:18;99204.66;;;1.09;100.00
4745;BME280;2386;42.138;24.746;2024-01-15T00:49:43;99202.28;;;0.91;100.00
4745;BME280;2386;42.138;24.746;2024-01-15T00:52:09;99209.78;;;0.95;100.00
4745;BME280;2386;42.138;24.746;2024-01-15T00:54:34;99201.44;;;1.13;100.00
4745;BME280;2386;42.138;24.746;2024-01-15T00:57:00;99194.72;;;1.17;100.00
4745;BME280;2386;42.138;24.746;2024-01-15T00:59:25;99200.00;;;1.25;98.87
4745;BME280;2386;42.138;24.746;2024-01-15T01:01:50;99198.84;;;1.43;97.72
4745;BME280;2386;42.138;24.746;2024-01-15T01:04:16;99201.94;;;1.31;96.98
4745;BME280;2386;42.138;24.746;2024-01-15T01:06:41;99189.72;;;0.99;99.03
4745;BME280;2386;42.138;24.746;2024-01-15T01:09:07;99198.13;;;1.11;99.07
4745;BME280;2386;42.138;24.746;2024-01-15T01:11:32;99192.69;;;1.05;99.61
4745;BME280;2386;42.138;24.746;2024-01-15T01:13:58;99185.66;;;1.04;100.00
4745;BME280;2386;42.138;24.746;2024-01-15T01:16:23;99186.50;;;1.04;99.82
4745;BME280;2386;42.138;24.746;2024-01-15T01:18:49;99180.22;;;0.97;98.91
4745;BME280;2386;42.138;24.746;2024-01-15T01:21:14;99200.41;;;0.77;100.00
4745;BME280;2386;42.138;24.746;2024-01-15T01:23:40;99187.31;;;0.67;100.00
4745;BME280;2386;42.138;24.746;2024-01-15T01:26:05;99190.88;;;0.59;100.00
4745;BME280;2386;42.138;24.746;2024-01-15T01:28:31;99186.34;;;0.83;99.87
4745;BME280;2386;42.138;24.746;2024-01-15T01:30:56;99189.53;;;0.63;100.00
4745;BME280;2386;42.138;24.746;2024-01-15T01:33:21;99201.34;;;0.84;100.00
4745;BME280;2386;42.138;24.746;2024-01-15T01:35:47;99192.63;;;0.90;99.82
4745;BME280;2386;42.138;24.746;2024-01-15T01:38:12;99180.28;;;0.89;100.00
4745;BME280;2386;42.138;24.746;2024-01-15T01:40:38;99172.88;;;0.99;98.36
4745;BME280;2386;42.138;24.746;2024-01-15T01:43:05;99191.78;;;1.12;98.66
4745;BME280;2386;42.138;24.746;2024-01-15T01:45:30;99185.38;;;0.98;98.06
4745;BME280;2386;42.138;24.746;2024-01-15T01:47:56;99185.91;;;0.94;97.82
4745;BME280;2386;42.138;24.746;2024-01-15T01:50:21;99172.28;;;0.89;98.02
4745;BME280;2386;42.138;24.746;2024-01-15T01:52:48;99173.22;;;0.96;98.94
4745;BME280;2386;42.138;24.746;2024-01-15T01:55:24;99178.19;;;0.99;97.90
4745;BME280;2386;42.138;24.746;2024-01-15T01:57:51;99172.88;;;0.99;98.28
4745;BME280;2386;42.138;24.746;2024-01-15T02:00:17;99161.72;;;0.95;98.42
4745;BME280;2386;42.138;24.746;2024-01-15T02:02:42;99172.78;;;1.07;97.40
4745;BME280;2386;42.138;24.746;2024-01-15T02:05:08;99171.78;;;1.08;96.39
4745;BME280;2386;42.138;24.746;2024-01-15T02:07:34;99158.03;;;0.96;95.89
4745;BME280;2386;42.138;24.746;2024-01-15T02:10:00;99168.53;;;0.98;96.49
4745;BME280;2386;42.138;24.746;2024-01-15T02:12:26;99169.44;;;0.90;97.19
4745;BME280;2386;42.138;24.746;2024-01-15T02:14:51;99168.59;;;0.90;97.14
4745;BME280;2386;42.138;24.746;2024-01-15T02:17:17;99163.97;;;0.84;98.10
4745;BME280;2386;42.138;24.746;2024-01-15T02:19:42;99172.16;;;0.68;99.21
4745;BME280;2386;42.138;24.746;2024-01-15T02:22:08;99165.81;;;0.69;99.59
4745;BME280;2386;42.138;24.746;2024-01-15T02:24:33;99164.38;;;0.58;100.00
4745;BME280;2386;42.138;24.746;2024-01-15T02:26:59;99155.94;;;0.69;100.00
4745;BME280;2386;42.138;24.746;2024-01-15T02:29:24;99157.50;;;0.63;99.38
4745;BME280;2386;42.138;24.746;2024-01-15T02:31:50;99162.78;;;0.72;99.69
4745;BME280;2386;42.138;24.746;2024-01-15T02:34:15;99174.34;;;0.64;99.54
4745;BME280;2386;42.138;24.746;2024-01-15T02:36:41;99159.09;;;0.73;98.84
4745;BME280;2386;42.138;24.746;2024-01-15T02:39:06;99170.41;;;0.29;100.00
4745;BME280;2386;42.138;24.746;2024-01-15T02:41:31;99172.13;;;0.22;100.00
4745;BME280;2386;42.138;24.746;2024-01-15T02:43:57;99171.44;;;-0.03;100.00
4745;BME280;2386;42.138;24.746;2024-01-15T02:46:22;99171.22;;;-0.32;100.00
4745;BME280;2386;42.138;24.746;2024-01-15T02:48:47;99178.00;;;-0.22;100.00
4745;BME280;2386;42.138;24.746;2024-01-15T02:51:13;99175.31;;;0.17;100.00
4745;BME280;2386;42.138;24.746;2024-01-15T02:53:38;99157.25;;;0.27;100.00
4745;BME280;2386;42.138;24.746;2024-01-15T02:56:07;99157.56;;;0.02;100.00
4745;BME280;2386;42.138;24.746;2024-01-15T02:58:32;99150.56;;;0.00;100.00
4745;BME280;2386;42.138;24.746;2024-01-15T03:00:58;99144.34;;;-0.15;100.00
4745;BME280;2386;42.138;24.746;2024-01-15T03:03:23;99139.84;;;-0.14;100.00
4745;BME280;2386;42.138;24.746;2024-01-15T03:05:49;99151.19;;;0.11;100.00
4745;BME280;2386;42.138;24.746;2024-01-15T03:08:14;99140.06;;;0.30;100.00
4745;BME280;2386;42.138;24.746;2024-01-15T03:10:39;99144.34;;;0.39;100.00
4745;BME280;2386;42.138;24.746;2024-01-15T03:13:05;99145.78;;;0.19;100.00
4745;BME280;2386;42.138;24.746;2024-01-15T03:15:31;99137.44;;;0.22;100.00
4745;BME280;2386;42.138;24.746;2024-01-15T03:17:56;99139.47;;;0.20;100.00
4745;BME280;2386;42.138;24.746;2024-01-15T03:20:21;99163.75;;;0.25;100.00
4745;BME280;2386;42.138;24.746;2024-01-15T03:22:47;99162.38;;;0.06;100.00
4745;BME280;2386;42.138;24.746;2024-01-15T03:25:12;99146.72;;;-0.28;100.00
4745;BME280;2386;42.138;24.746;2024-01-15T03:27:37;99144.25;;;-0.29;100.00
4745;BME280;2386;42.138;24.746;2024-01-15T03:30:03;99149.91;;;-0.32;100.00
4745;BME280;2386;42.138;24.746;2024-01-15T03:32:29;99137.38;;;-0.24;100.00
4745;BME280;2386;42.138;24.746;2024-01-15T03:34:54;99139.63;;;-0.05;100.00
4745;BME280;2386;42.138;24.746;2024-01-15T03:37:19;99125.06;;;-0.25;100.00
4745;BME280;2386;42.138;24.746;2024-01-15T03:39:45;99121.41;;;-0.24;100.00
4745;BME280;2386;42.138;24.746;2024-01-15T03:42:11;99147.25;;;-0.32;100.00
4745;BME280;2386;42.138;24.746;2024-01-15T03:44:37;99151.91;;;-0.35;100.00
4745;BME280;2386;42.138;24.746;2024-01-15T03:47:02;99142.28;;;-0.05;100.00
4745;BME280;2386;42.138;24.746;2024-01-15T03:49:28;99149.63;;;-0.07;100.00
4745;BME280;2386;42.138;24.746;2024-01-15T03:51:53;99146.88;;;-0.21;100.00
4745;BME280;2386;42.138;24.746;2024-01-15T03:54:18;99154.00;;;-0.14;100.00
4745;BME280;2386;42.138;24.746;2024-01-15T03:56:44;99154.09;;;-0.38;100.00
4745;BME280;2386;42.138;24.746;2024-01-15T03:59:09;99143.06;;;-0.27;100.00
4745;BME280;2386;42.138;24.746;2024-01-15T04:01:35;99142.72;;;-0.24;100.00
4745;BME280;2386;42.138;24.746;2024-01-15T04:04:00;99156.00;;;-0.16;100.00
4745;BME280;2386;42.138;24.746;2024-01-15T04:06:25;99155.53;;;-0.19;100.00
4745;BME280;2386;42.138;24.746;2024-01-15T04:08:51;99152.34;;;-0.15;100.00
4745;BME280;2386;42.138;24.746;2024-01-15T04:11:17;99136.41;;;-0.31;100.00
4745;BME280;2386;42.138;24.746;2024-01-15T04:13:42;99138.22;;;-0.23;100.00
4745;BME280;2386;42.138;24.746;2024-01-15T04:16:08;99127.88;;;-0.18;100.00
4745;BME280;2386;42.138;24.746;2024-01-15T04:18:33;99140.28;;;-0.03;100.00
4745;BME280;2386;42.138;24.746;2024-01-15T04:20:59;99148.50;;;0.11;100.00
4745;BME280;2386;42.138;24.746;2024-01-15T04:23:24;99146.78;;;-0.05;99.63
4745;BME280;2386;42.138;24.746;2024-01-15T04:25:51;99133.78;;;-0.39;100.00
4745;BME280;2386;42.138;24.746;2024-01-15T04:28:16;99122.00;;;-0.53;100.00
4745;BME280;2386;42.138;24.746;2024-01-15T04:30:42;99133.88;;;-0.72;100.00
4745;BME280;2386;42.138;24.746;2024-01-15T04:33:07;99129.84;;;-0.51;100.00
4745;BME280;2386;42.138;24.746;2024-01-15T04:35:33;99120.50;;;-0.47;100.00
4745;BME280;2386;42.138;24.746;2024-01-15T04:37:59;99115.84;;;-0.53;100.00
4745;BME280;2386;42.138;24.746;2024-01-15T04:40:25;99119.72;;;-0.64;100.00
4745;BME280;2386;42.138;24.746;2024-01-15T04:42:53;99111.78;;;-0.33;100.00
4745;BME280;2386;42.138;24.746;2024-01-15T04:45:18;99128.16;;;-0.52;100.00
4745;BME280;2386;42.138;24.746;2024-01-15T04:47:44;99130.94;;;-0.38;100.00
4745;BME280;2386;42.138;24.746;2024-01-15T04:50:10;99114.13;;;-0.38;100.00
4745;BME280;2386;42.138;24.746;2024-01-15T04:52:35;99097.50;;;-0.40;100.00
4745;BME280;2386;42.138;24.746;2024-01-15T04:55:01;99110.19;;;-0.50;100.00
4745;BME280;2386;42.138;24.746;2024-01-15T04:57:26;99120.50;;;-0.47;100.00
4745;BME280;2386;42.138;24.746;2024-01-15T04:59:51;99116.03;;;-0.16;100.00
4745;BME280;2386;42.138;24.746;2024-01-15T05:02:17;99113.91;;;0.03;100.00
4745;BME280;2386;42.138;24.746;2024-01-15T05:04:42;99114.84;;;0.10;100.00
4745;BME280;2386;42.138;24.746;2024-01-15T05:07:07;99108.28;;;-0.03;100.00
4745;BME280;2386;42.138;24.746;2024-01-15T05:09:33;99107.28;;;-0.02;100.00
4745;BME280;2386;42.138;24.746;2024-01-15T05:11:59;99090.28;;;-0.01;100.00
4745;BME280;2386;42.138;24.746;2024-01-15T05:14:24;99089.50;;;0.14;100.00
4745;BME280;2386;42.138;24.746;2024-01-15T05:16:49;99085.66;;;0.16;100.00
4745;BME280;2386;42.138;24.746;2024-01-15T05:19:16;99084.47;;;0.19;99.80
4745;BME280;2386;42.138;24.746;2024-01-15T05:21:42;99075.34;;;-0.10;100.00
4745;BME280;2386;42.138;24.746;2024-01-15T05:24:08;99076.47;;;-0.04;100.00
4745;BME280;2386;42.138;24.746;2024-01-15T05:26:33;99075.13;;;0.00;100.00
4745;BME280;2386;42.138;24.746;2024-01-15T05:28:59;99079.97;;;-0.04;100.00
4745;BME280;2386;42.138;24.746;2024-01-15T05:31:24;99070.53;;;0.09;100.00
4745;BME280;2386;42.138;24.746;2024-01-15T05:33:50;99072.34;;;-0.07;100.00
4745;BME280;2386;42.138;24.746;2024-01-15T05:36:15;99075.41;;;0.05;100.00
4745;BME280;2386;42.138;24.746;2024-01-15T05:38:41;99062.44;;;0.25;100.00
4745;BME280;2386;42.138;24.746;2024-01-15T05:41:06;99059.00;;;0.16;99.22
4745;BME280;2386;42.138;24.746;2024-01-15T05:43:31;99070.06;;;0.28;99.73
4745;BME280;2386;42.138;24.746;2024-01-15T05:45:57;99067.28;;;0.21;99.45
4745;BME280;2386;42.138;24.746;2024-01-15T05:48:23;99076.06;;;0.30;98.84
4745;BME280;2386;42.138;24.746;2024-01-15T05:50:48;99089.84;;;0.33;97.86
4745;BME280;2386;42.138;24.746;2024-01-15T05:53:14;99100.13;;;0.22;98.09
4745;BME280;2386;42.138;24.746;2024-01-15T05:55:40;99094.22;;;0.04;100.00
4745;BME280;2386;42.138;24.746;2024-01-15T05:58:05;99103.19;;;0.11;100.00
4745;BME280;2386;42.138;24.746;2024-01-15T06:00:30;99087.31;;;-0.37;99.77
4745;BME280;2386;42.138;24.746;2024-01-15T06:02:58;99093.47;;;-0.36;100.00
4745;BME280;2386;42.138;24.746;2024-01-15T06:05:23;99103.00;;;-0.42;100.00
4745;BME280;2386;42.138;24.746;2024-01-15T06:07:49;99081.38;;;-0.86;100.00
4745;BME280;2386;42.138;24.746;2024-01-15T06:10:14;99085.03;;;-0.79;100.00
4745;BME280;2386;42.138;24.746;2024-01-15T06:12:40;99071.59;;;-0.54;100.00
4745;BME280;2386;42.138;24.746;2024-01-15T06:15:05;99069.88;;;-0.47;100.00
4745;BME280;2386;42.138;24.746;2024-01-15T06:17:31;99074.44;;;-0.25;100.00
4745;BME280;2386;42.138;24.746;2024-01-15T06:19:56;99077.84;;;-0.39;100.00
4745;BME280;2386;42.138;24.746;2024-01-15T06:22:22;99088.94;;;-0.67;100.00
4745;BME280;2386;42.138;24.746;2024-01-15T06:24:48;99107.63;;;-0.75;100.00
4745;BME280;2386;42.138;24.746;2024-01-15T06:27:13;99112.69;;;-0.96;100.00
4745;BME280;2386;42.138;24.746;2024-01-15T06:29:39;99115.31;;;-0.80;100.00
4745;BME280;2386;42.138;24.746;2024-01-15T06:32:04;99115.31;;;-0.41;100.00
4745;BME280;2386;42.138;24.746;2024-01-15T06:34:30;99102.84;;;-0.48;100.00
4745;BME280;2386;42.138;24.746;2024-01-15T06:36:55;99092.31;;;-0.34;100.00
4745;BME280;2386;42.138;24.746;2024-01-15T06:39:21;99105.38;;;-0.16;100.00
4745;BME280;2386;42.138;24.746;2024-01-15T06:41:46;99125.69;;;-0.15;97.45
4745;BME280;2386;42.138;24.746;2024-01-15T06:44:12;99107.06;;;-0.23;96.27
4745;BME280;2386;42.138;24.746;2024-01-15T06:46:44;99093.09;;;-0.25;96.51
4745;BME280;2386;42.138;24.746;2024-01-15T06:49:10;99102.78;;;-0.32;94.26
4745;BME280;2386;42.138;24.746;2024-01-15T06:51:36;99097.19;;;-0.45;96.34
4745;BME280;2386;42.138;24.746;2024-01-15T06:54:01;99082.59;;;-0.57;98.02
4745;BME280;2386;42.138;24.746;2024-01-15T06:56:28;99091.41;;;-0.57;99.64
4745;BME280;2386;42.138;24.746;2024-01-15T06:58:54;99083.88;;;-0.45;99.84
4745;BME280;2386;42.138;24.746;2024-01-15T07:01:19;99075.25;;;-0.55;100.00
4745;BME280;2386;42.138;24.746;2024-01-15T07:03:45;99090.22;;;-0.54;100.00
4745;BME280;2386;42.138;24.746;2024-01-15T07:06:11;99098.91;;;-0.60;100.00
4745;BME280;2386;42.138;24.746;2024-01-15T07:08:37;99090.72;;;-0.90;100.00
4745;BME280;2386;42.138;24.746;2024-01-15T07:11:05;99095.03;;;-0.89;100.00
4745;BME280;2386;42.138;24.746;2024-01-15T07:13:32;99077.41;;;-0.98;100.00
4745;BME280;2386;42.138;24.746;2024-01-15T07:15:57;99082.72;;;-0.90;100.00
4745;BME280;2386;42.138;24.746;2024-01-15T07:18:23;99083.31;;;-0.72;100.00
4745;BME280;2386;42.138;24.746;2024-01-15T07:20:49;99083.38;;;-0.80;100.00
4745;BME280;2386;42.138;24.746;2024-01-15T07:23:14;99083.63;;;-0.67;100.00
4745;BME280;2386;42.138;24.746;2024-01-15T07:25:40;99089.59;;;-0.25;100.00
4745;BME280;2386;42.138;24.746;2024-01-15T07:28:05;99086.59;;;0.00;99.45
4745;BME280;2386;42.138;24.746;2024-01-15T07:30:31;99088.47;;;-0.31;97.71
4745;BME280;2386;42.138;24.746;2024-01-15T07:32:56;99092.59;;;-0.28;98.08
4745;BME280;2386;42.138;24.746;2024-01-15T07:35:21;99095.97;;;-0.04;97.96
4745;BME280;2386;42.138;24.746;2024-01-15T07:37:47;99080.13;;;0.18;96.19
4745;BME280;2386;42.138;24.746;2024-01-15T07:40:12;99087.03;;;0.35;95.10
4745;BME280;2386;42.138;24.746;2024-01-15T07:42:38;99094.88;;;0.51;94.88
4745;BME280;2386;42.138;24.746;2024-01-15T07:45:04;99101.06;;;0.52;93.19
4745;BME280;2386;42.138;24.746;2024-01-15T07:47:29;99099.97;;;0.61;92.47
4745;BME280;2386;42.138;24.746;2024-01-15T07:49:55;99105.91;;;0.71;93.01
4745;BME280;2386;42.138;24.746;2024-01-15T07:52:21;99096.69;;;0.88;92.72
4745;BME280;2386;42.138;24.746;2024-01-15T07:54:46;99091.03;;;1.06;90.99
4745;BME280;2386;42.138;24.746;2024-01-15T07:57:12;99097.19;;;1.21;90.20
4745;BME280;2386;42.138;24.746;2024-01-15T07:59:38;99101.81;;;1.27;89.26
4745;BME280;2386;42.138;24.746;2024-01-15T08:02:03;99106.31;;;1.42;88.75
4745;BME280;2386;42.138;24.746;2024-01-15T08:04:29;99102.09;;;1.33;89.46
4745;BME280;2386;42.138;24.746;2024-01-15T08:06:54;99113.41;;;1.35;90.72
4745;BME280;2386;42.138;24.746;2024-01-15T08:09:20;99117.28;;;1.47;89.65
4745;BME280;2386;42.138;24.746;2024-01-15T08:11:45;99123.47;;;1.33;88.53
4745;BME280;2386;42.138;24.746;2024-01-15T08:14:11;99134.03;;;1.11;90.18
4745;BME280;2386;42.138;24.746;2024-01-15T08:16:37;99135.53;;;1.28;91.21
4745;BME280;2386;42.138;24.746;2024-01-15T08:19:03;99132.56;;;1.23;92.10
4745;BME280;2386;42.138;24.746;2024-01-15T08:21:28;99117.56;;;1.22;92.79
4745;BME280;2386;42.138;24.746;2024-01-15T08:23:56;99117.47;;;1.45;92.52
4745;BME280;2386;42.138;24.746;2024-01-15T08:26:22;99122.31;;;1.71;91.11
4745;BME280;2386;42.138;24.746;2024-01-15T08:28:47;99117.31;;;1.83;89.62
4745;BME280;2386;42.138;24.746;2024-01-15T08:31:13;99136.91;;;2.05;87.48
4745;BME280;2386;42.138;24.746;2024-01-15T08:33:38;99133.00;;;1.86;87.72
4745;BME280;2386;42.138;24.746;2024-01-15T08:36:04;99124.06;;;1.79;90.16
4745;BME280;2386;42.138;24.746;2024-01-15T08:38:29;99130.88;;;1.81;90.26
4745;BME280;2386;42.138;24.746;2024-01-15T08:40:55;99107.84;;;1.65;91.27
4745;BME280;2386;42.138;24.746;2024-01-15T08:43:24;99115.22;;;1.63;92.38
4745;BME280;2386;42.138;24.746;2024-01-15T08:45:49;99117.59;;;1.73;92.42
4745;BME280;2386;42.138;24.746;2024-01-15T08:48:16;99107.91;;;1.87;93.13
4745;BME280;2386;42.138;24.746;2024-01-15T08:50:41;99097.28;;;1.93;92.36
4745;BME280;2386;42.138;24.746;2024-01-15T08:53:07;99098.78;;;2.17;93.30
4745;BME280;2386;42.138;24.746;2024-01-15T08:55:32;99079.22;;;2.38;91.54
4745;BME280;2386;42.138;24.746;2024-01-15T08:57:58;99069.91;;;2.55;88.82
4745;BME280;2386;42.138;24.746;2024-01-15T09:00:23;99070.03;;;2.47;90.50
4745;BME280;2386;42.138;24.746;2024-01-15T09:02:49;99060.34;;;2.46;88.31
4745;BME280;2386;42.138;24.746;2024-01-15T09:05:14;99070.94;;;2.33;87.02
4745;BME280;2386;42.138;24.746;2024-01-15T09:07:40;99064.94;;;2.52;87.18
4745;BME280;2386;42.138;24.746;2024-01-15T09:10:11;99056.22;;;2.44;87.24
4745;BME280;2386;42.138;24.746;2024-01-15T09:12:36;99050.13;;;5.00;100.00
4745;BME280;2386;42.138;24.746;2024-01-15T09:15:02;99059.19;;;4.13;81.75
4745;BME280;2386;42.138;24.746;2024-01-15T09:17:29;99045.09;;;3.91;79.05
4745;BME280;2386;42.138;24.746;2024-01-15T09:19:55;99042.25;;;4.13;81.71
4745;BME280;2386;42.138;24.746;2024-01-15T09:22:20;99050.91;;;4.02;79.55
4745;BME280;2386;42.138;24.746;2024-01-15T09:24:46;99061.19;;;3.98;76.31
4745;BME280;2386;42.138;24.746;2024-01-15T09:27:11;99061.44;;;4.10;76.35
4745;BME280;2386;42.138;24.746;2024-01-15T09:29:37;99042.56;;;3.77;77.84
4745;BME280;2386;42.138;24.746;2024-01-15T09:32:05;99042.56;;;3.70;81.98
4745;BME280;2386;42.138;24.746;2024-01-15T09:34:33;99031.72;;;4.05;82.39
4745;BME280;2386;42.138;24.746;2024-01-15T09:36:58;99029.06;;;4.31;78.88
4745;BME280;2386;42.138;24.746;2024-01-15T09:39:25;99026.16;;;4.59;81.94
4745;BME280;2386;42.138;24.746;2024-01-15T09:41:51;99026.97;;;4.86;77.55
4745;BME280;2386;42.138;24.746;2024-01-15T09:44:17;99026.34;;;4.84;76.49
4745;BME280;2386;42.138;24.746;2024-01-15T09:46:42;99019.09;;;5.04;77.37
4745;BME280;2386;42.138;24.746;2024-01-15T09:49:10;99003.72;;;5.24;75.91
4745;BME280;2386;42.138;24.746;2024-01-15T09:51:35;99013.09;;;5.60;78.49
4745;BME280;2386;42.138;24.746;2024-01-15T09:54:02;99022.78;;;5.16;72.63
4745;BME280;2386;42.138;24.746;2024-01-15T09:56:30;99007.16;;;4.74;75.20
4745;BME280;2386;42.138;24.746;2024-01-15T09:58:56;98977.22;;;3.97;78.63
4745;BME280;2386;42.138;24.746;2024-01-15T10:01:23;98981.56;;;4.18;80.57
4745;BME280;2386;42.138;24.746;2024-01-15T10:03:49;98985.91;;;4.19;78.56
4745;BME280;2386;42.138;24.746;2024-01-15T10:06:16;98981.97;;;4.02;79.69
4745;BME280;2386;42.138;24.746;2024-01-15T10:08:48;98989.81;;;4.04;81.52
4745;BME280;2386;42.138;24.746;2024-01-15T10:11:14;98974.53;;;4.11;81.68
4745;BME280;2386;42.138;24.746;2024-01-15T10:13:40;98974.34;;;4.32;81.26
4745;BME280;2386;42.138;24.746;2024-01-15T10:16:06;98972.91;;;4.23;80.10
4745;BME280;2386;42.138;24.746;2024-01-15T10:18:32;98972.84;;;4.69;92.89
4745;BME280;2386;42.138;24.746;2024-01-15T10:20:58;98959.19;;;4.84;85.69
4745;BME280;2386;42.138;24.746;2024-01-15T10:23:24;98955.88;;;4.95;78.62
4745;BME280;2386;42.138;24.746;2024-01-15T10:25:49;98940.13;;;4.99;83.04
4745;BME280;2386;42.138;24.746;2024-01-15T10:28:18;98934.13;;;5.10;80.12
4745;BME280;2386;42.138;24.746;2024-01-15T10:30:44;98947.34;;;5.11;79.16
4745;BME280;2386;42.138;24.746;2024-01-15T10:33:09;98929.59;;;5.42;76.26
4745;BME280;2386;42.138;24.746;2024-01-15T10:35:35;98902.63;;;5.55;75.42
4745;BME280;2386;42.138;24.746;2024-01-15T10:38:01;98895.44;;;5.80;77.48
4745;BME280;2386;42.138;24.746;2024-01-15T10:40:28;98888.31;;;5.61;73.89
4745;BME280;2386;42.138;24.746;2024-01-15T10:42:54;98883.56;;;5.63;76.71
4745;BME280;2386;42.138;24.746;2024-01-15T10:45:19;98868.44;;;5.62;74.32
4745;BME280;2386;42.138;24.746;2024-01-15T10:47:45;98847.19;;;5.22;74.79
4745;BME280;2386;42.138;24.746;2024-01-15T10:50:11;98870.25;;;5.37;75.72
4745;BME280;2386;42.138;24.746;2024-01-15T10:52:38;98870.38;;;5.55;74.38
4745;BME280;2386;42.138;24.746;2024-01-15T10:55:07;98868.78;;;6.04;74.42
4745;BME280;2386;42.138;24.746;2024-01-15T10:57:34;98872.16;;;6.61;77.55
4745;BME280;2386;42.138;24.746;2024-01-15T11:00:01;98869.53;;;6.72;70.88
4745;BME280;2386;42.138;24.746;2024-01-15T11:02:29;98871.69;;;7.00;68.89
4745;BME280;2386;42.138;24.746;2024-01-15T11:04:55;98866.75;;;6.97;69.34
4745;BME280;2386;42.138;24.746;2024-01-15T11:07:22;98863.91;;;6.92;65.84
4745;BME280;2386;42.138;24.746;2024-01-15T11:09:50;98849.53;;;6.98;67.52
4745;BME280;2386;42.138;24.746;2024-01-15T11:12:16;98832.13;;;7.12;66.24
4745;BME280;2386;42.138;24.746;2024-01-15T11:14:47;98830.59;;;7.35;64.42
4745;BME280;2386;42.138;24.746;2024-01-15T11:17:13;98825.31;;;7.40;68.20
4745;BME280;2386;42.138;24.746;2024-01-15T11:19:49;98826.34;;;7.27;66.30
4745;BME280;2386;42.138;24.746;2024-01-15T11:24:56;98807.84;;;7.42;66.96
4745;BME280;2386;42.138;24.746;2024-01-15T11:30:09;98814.78;;;7.62;65.22
4745;BME280;2386;42.138;24.746;2024-01-15T11:32:36;98806.16;;;7.95;65.04
4745;BME280;2386;42.138;24.746;2024-01-15T11:35:02;98805.53;;;7.57;56.81
4745;BME280;2386;42.138;24.746;2024-01-15T11:40:36;98806.22;;;7.41;56.10
4745;BME280;2386;42.138;24.746;2024-01-15T11:43:03;98790.63;;;7.55;60.88
4745;BME280;2386;42.138;24.746;2024-01-15T11:45:30;98796.97;;;7.72;59.45
4745;BME280;2386;42.138;24.746;2024-01-15T11:48:14;98797.16;;;7.47;60.95
4745;BME280;2386;42.138;24.746;2024-01-15T11:50:50;98787.25;;;7.71;62.53
4745;BME280;2386;42.138;24.746;2024-01-15T11:55:57;98788.56;;;8.04;61.55
4745;BME280;2386;42.138;24.746;2024-01-15T11:58:23;98798.31;;;7.93;56.06
4745;BME280;2386;42.138;24.746;2024-01-15T12:00:51;98781.38;;;7.74;66.17
4745;BME280;2386;42.138;24.746;2024-01-15T12:03:17;98766.72;;;7.94;66.16
4745;BME280;2386;42.138;24.746;2024-01-15T12:05:45;98755.81;;;8.12;66.47
4745;BME280;2386;42.138;24.746;2024-01-15T12:08:10;98762.31;;;8.51;62.56
4745;BME280;2386;42.138;24.746;2024-01-15T12:10:39;98783.69;;;8.64;61.81
4745;BME280;2386;42.138;24.746;2024-01-15T12:13:13;98782.97;;;8.69;62.66
4745;BME280;2386;42.138;24.746;2024-01-15T12:15:40;98789.16;;;8.81;62.92
4745;BME280;2386;42.138;24.746;2024-01-15T12:18:10;98775.06;;;8.79;61.04
4745;BME280;2386;42.138;24.746;2024-01-15T12:20:35;98786.81;;;8.84;56.63
4745;BME280;2386;42.138;24.746;2024-01-15T12:23:02;98773.53;;;8.83;58.51
4745;BME280;2386;42.138;24.746;2024-01-15T12:25:32;98770.69;;;8.89;59.13
4745;BME280;2386;42.138;24.746;2024-01-15T12:27:58;98765.03;;;8.91;58.89
4745;BME280;2386;42.138;24.746;2024-01-15T12:30:26;98757.88;;;8.85;57.81
4745;BME280;2386;42.138;24.746;2024-01-15T12:32:51;98750.84;;;8.84;57.90
4745;BME280;2386;42.138;24.746;2024-01-15T12:35:17;98743.41;;;8.91;56.50
4745;BME280;2386;42.138;24.746;2024-01-15T12:37:43;98756.06;;;9.19;54.70
4745;BME280;2386;42.138;24.746;2024-01-15T12:40:10;98757.66;;;9.03;56.88
4745;BME280;2386;42.138;24.746;2024-01-15T12:42:39;98757.19;;;9.06;56.77
4745;BME280;2386;42.138;24.746;2024-01-15T12:45:05;98760.56;;;9.13;58.13
4745;BME280;2386;42.138;24.746;2024-01-15T12:47:31;98757.75;;;9.08;56.30
4745;BME280;2386;42.138;24.746;2024-01-15T12:49:57;98759.59;;;9.19;57.81
4745;BME280;2386;42.138;24.746;2024-01-15T12:52:27;98748.09;;;9.12;57.92
4745;BME280;2386;42.138;24.746;2024-01-15T12:54:53;98742.97;;;9.28;58.63
4745;BME280;2386;42.138;24.746;2024-01-15T12:57:18;98745.28;;;9.36;58.31
4745;BME280;2386;42.138;24.746;2024-01-15T12:59:44;98750.03;;;9.29;57.19
4745;BME280;2386;42.138;24.746;2024-01-15T13:02:11;98740.94;;;8.89;59.53
4745;BME280;2386;42.138;24.746;2024-01-15T13:04:37;98733.09;;;9.05;59.34
4745;BME280;2386;42.138;24.746;2024-01-15T13:07:02;98736.38;;;9.07;59.45
4745;BME280;2386;42.138;24.746;2024-01-15T13:09:28;98728.81;;;9.09;58.06
4745;BME280;2386;42.138;24.746;2024-01-15T13:11:55;98722.53;;;9.20;59.03
4745;BME280;2386;42.138;24.746;2024-01-15T13:14:20;98716.03;;;9.04;59.50
4745;BME280;2386;42.138;24.746;2024-01-15T13:16:46;98714.56;;;9.13;60.57
4745;BME280;2386;42.138;24.746;2024-01-15T13:19:11;98705.47;;;9.19;59.15